sensor_id;sensor_type;location;lat;lon;timestamp;P1;durP1;ratioP1;P2;durP2;ratioP2
20814;SDS011;10568;48.176;16.316;2023-03-23T00:00:11;3.60;;;2.63;;
20814;SDS011;10568;48.176;16.316;2023-03-23T00:02:38;3.67;;;2.70;;
20814;SDS011;10568;48.176;16.316;2023-03-23T00:05:06;3.33;;;2.70;;
20814;SDS011;10568;48.176;16.316;2023-03-23T00:07:34;4.27;;;2.70;;
20814;SDS011;10568;48.176;16.316;2023-03-23T00:10:00;3.57;;;2.70;;
20814;SDS011;10568;48.176;16.316;2023-03-23T00:12:28;3.70;;;3.00;;
20814;SDS011;10568;48.176;16.316;2023-03-23T00:15:02;4.73;;;3.03;;
20814;SDS011;10568;48.176;16.316;2023-03-23T00:17:29;3.33;;;2.53;;
20814;SDS011;10568;48.176;16.316;2023-03-23T00:19:58;5.23;;;3.40;;
20814;SDS011;10568;48.176;16.316;2023-03-23T00:22:26;3.97;;;2.80;;
20814;SDS011;10568;48.176;16.316;2023-03-23T00:24:53;4.07;;;2.80;;
20814;SDS011;10568;48.176;16.316;2023-03-23T00:27:19;3.77;;;2.87;;
20814;SDS011;10568;48.176;16.316;2023-03-23T00:29:47;4.57;;;2.80;;
20814;SDS011;10568;48.176;16.316;2023-03-23T00:32:20;4.83;;;2.97;;
20814;SDS011;10568;48.176;16.316;2023-03-23T00:34:52;4.13;;;2.60;;
20814;SDS011;10568;48.176;16.316;2023-03-23T00:37:18;4.87;;;2.40;;
20814;SDS011;10568;48.176;16.316;2023-03-23T00:39:44;4.13;;;2.60;;
20814;SDS011;10568;48.176;16.316;2023-03-23T00:42:12;3.63;;;2.57;;
20814;SDS011;10568;48.176;16.316;2023-03-23T00:44:42;3.43;;;2.30;;
20814;SDS011;10568;48.176;16.316;2023-03-23T00:47:08;4.70;;;2.37;;
20814;SDS011;10568;48.176;16.316;2023-03-23T00:49:36;5.83;;;2.23;;
20814;SDS011;10568;48.176;16.316;2023-03-23T00:52:03;4.80;;;3.00;;
20814;SDS011;10568;48.176;16.316;2023-03-23T00:54:31;3.17;;;2.23;;
20814;SDS011;10568;48.176;16.316;2023-03-23T00:56:58;2.73;;;2.20;;
20814;SDS011;10568;48.176;16.316;2023-03-23T00:59:24;4.03;;;2.37;;
20814;SDS011;10568;48.176;16.316;2023-03-23T01:01:50;3.67;;;2.90;;
20814;SDS011;10568;48.176;16.316;2023-03-23T01:04:16;3.27;;;2.43;;
20814;SDS011;10568;48.176;16.316;2023-03-23T01:06:43;3.30;;;2.70;;
20814;SDS011;10568;48.176;16.316;2023-03-23T01:09:11;4.77;;;3.27;;
20814;SDS011;10568;48.176;16.316;2023-03-23T01:11:44;4.40;;;2.77;;
20814;SDS011;10568;48.176;16.316;2023-03-23T01:14:11;3.77;;;2.47;;
20814;SDS011;10568;48.176;16.316;2023-03-23T01:16:39;3.07;;;2.33;;
20814;SDS011;10568;48.176;16.316;2023-03-23T01:19:05;3.50;;;2.30;;
20814;SDS011;10568;48.176;16.316;2023-03-23T01:21:46;3.43;;;2.50;;
20814;SDS011;10568;48.176;16.316;2023-03-23T01:24:12;3.10;;;2.50;;
20814;SDS011;10568;48.176;16.316;2023-03-23T01:26:37;3.73;;;2.30;;
20814;SDS011;10568;48.176;16.316;2023-03-23T01:29:03;3.30;;;2.43;;
20814;SDS011;10568;48.176;16.316;2023-03-23T01:31:29;4.83;;;3.13;;
20814;SDS011;10568;48.176;16.316;2023-03-23T01:33:55;2.93;;;2.50;;
20814;SDS011;10568;48.176;16.316;2023-03-23T01:36:25;3.07;;;2.50;;
20814;SDS011;10568;48.176;16.316;2023-03-23T01:38:58;3.53;;;2.57;;
20814;SDS011;10568;48.176;16.316;2023-03-23T01:41:29;3.40;;;2.30;;
20814;SDS011;10568;48.176;16.316;2023-03-23T01:43:58;3.80;;;2.50;;
20814;SDS011;10568;48.176;16.316;2023-03-23T01:46:32;3.93;;;2.70;;
20814;SDS011;10568;48.176;16.316;2023-03-23T01:49:10;2.97;;;2.40;;
20814;SDS011;10568;48.176;16.316;2023-03-23T01:51:41;2.43;;;2.23;;
20814;SDS011;10568;48.176;16.316;2023-03-23T01:54:13;5.57;;;2.50;;
20814;SDS011;10568;48.176;16.316;2023-03-23T01:56:47;2.80;;;2.20;;
20814;SDS011;10568;48.176;16.316;2023-03-23T01:59:19;4.33;;;2.90;;
20814;SDS011;10568;48.176;16.316;2023-03-23T02:01:47;4.37;;;2.57;;
20814;SDS011;10568;48.176;16.316;2023-03-23T02:04:13;3.77;;;2.67;;
20814;SDS011;10568;48.176;16.316;2023-03-23T02:06:41;4.03;;;2.53;;
20814;SDS011;10568;48.176;16.316;2023-03-23T02:09:09;2.63;;;2.43;;
20814;SDS011;10568;48.176;16.316;2023-03-23T02:11:38;3.10;;;2.30;;
20814;SDS011;10568;48.176;16.316;2023-03-23T02:14:04;2.83;;;2.43;;
20814;SDS011;10568;48.176;16.316;2023-03-23T02:23:12;3.43;;;2.63;;
20814;SDS011;10568;48.176;16.316;2023-03-23T02:33:46;3.27;;;2.50;;
20814;SDS011;10568;48.176;16.316;2023-03-23T02:36:24;3.53;;;2.47;;
20814;SDS011;10568;48.176;16.316;2023-03-23T02:39:04;5.30;;;2.80;;
20814;SDS011;10568;48.176;16.316;2023-03-23T02:41:32;6.87;;;2.50;;
20814;SDS011;10568;48.176;16.316;2023-03-23T02:44:29;3.93;;;2.87;;
20814;SDS011;10568;48.176;16.316;2023-03-23T02:46:57;4.23;;;2.90;;
20814;SDS011;10568;48.176;16.316;2023-03-23T02:49:26;3.87;;;2.37;;
20814;SDS011;10568;48.176;16.316;2023-03-23T02:51:56;2.87;;;2.40;;
20814;SDS011;10568;48.176;16.316;2023-03-23T02:54:24;2.97;;;2.50;;
20814;SDS011;10568;48.176;16.316;2023-03-23T02:56:52;3.97;;;2.30;;
20814;SDS011;10568;48.176;16.316;2023-03-23T02:59:21;2.97;;;2.10;;
20814;SDS011;10568;48.176;16.316;2023-03-23T03:21:27;3.73;;;2.40;;
20814;SDS011;10568;48.176;16.316;2023-03-23T03:23:58;4.03;;;2.47;;
20814;SDS011;10568;48.176;16.316;2023-03-23T03:26:27;2.87;;;2.10;;
20814;SDS011;10568;48.176;16.316;2023-03-23T03:28:56;2.93;;;1.93;;
20814;SDS011;10568;48.176;16.316;2023-03-23T03:31:23;3.60;;;2.20;;
20814;SDS011;10568;48.176;16.316;2023-03-23T03:34:02;3.60;;;2.33;;
20814;SDS011;10568;48.176;16.316;2023-03-23T03:36:28;3.47;;;2.20;;
20814;SDS011;10568;48.176;16.316;2023-03-23T03:39:00;3.33;;;2.53;;
20814;SDS011;10568;48.176;16.316;2023-03-23T03:42:04;3.10;;;2.40;;
20814;SDS011;10568;48.176;16.316;2023-03-23T03:44:31;3.40;;;2.00;;
20814;SDS011;10568;48.176;16.316;2023-03-23T03:46:57;2.73;;;2.37;;
20814;SDS011;10568;48.176;16.316;2023-03-23T03:49:23;3.87;;;2.20;;
20814;SDS011;10568;48.176;16.316;2023-03-23T03:51:50;2.83;;;2.27;;
20814;SDS011;10568;48.176;16.316;2023-03-23T03:54:16;2.63;;;2.13;;
20814;SDS011;10568;48.176;16.316;2023-03-23T03:56:42;2.93;;;2.37;;
20814;SDS011;10568;48.176;16.316;2023-03-23T03:59:09;5.40;;;2.70;;
20814;SDS011;10568;48.176;16.316;2023-03-23T04:01:36;3.83;;;2.73;;
20814;SDS011;10568;48.176;16.316;2023-03-23T04:04:02;4.80;;;2.73;;
20814;SDS011;10568;48.176;16.316;2023-03-23T04:06:29;3.60;;;2.30;;
20814;SDS011;10568;48.176;16.316;2023-03-23T04:08:57;2.57;;;2.20;;
20814;SDS011;10568;48.176;16.316;2023-03-23T04:14:16;3.13;;;2.30;;
20814;SDS011;10568;48.176;16.316;2023-03-23T04:16:41;4.33;;;2.60;;
20814;SDS011;10568;48.176;16.316;2023-03-23T04:19:09;3.27;;;1.93;;
20814;SDS011;10568;48.176;16.316;2023-03-23T04:21:35;3.27;;;2.30;;
20814;SDS011;10568;48.176;16.316;2023-03-23T04:24:01;5.63;;;2.63;;
20814;SDS011;10568;48.176;16.316;2023-03-23T04:26:28;2.70;;;2.37;;
20814;SDS011;10568;48.176;16.316;2023-03-23T04:28:54;5.13;;;2.43;;
20814;SDS011;10568;48.176;16.316;2023-03-23T04:31:21;3.87;;;2.87;;
20814;SDS011;10568;48.176;16.316;2023-03-23T04:33:50;3.10;;;2.30;;
20814;SDS011;10568;48.176;16.316;2023-03-23T04:36:19;3.73;;;2.30;;
20814;SDS011;10568;48.176;16.316;2023-03-23T04:38:47;3.77;;;2.60;;
20814;SDS011;10568;48.176;16.316;2023-03-23T04:41:15;3.57;;;2.40;;
20814;SDS011;10568;48.176;16.316;2023-03-23T04:43:41;3.10;;;2.33;;
20814;SDS011;10568;48.176;16.316;2023-03-23T04:46:07;3.67;;;2.40;;
20814;SDS011;10568;48.176;16.316;2023-03-23T04:48:36;2.50;;;2.30;;
20814;SDS011;10568;48.176;16.316;2023-03-23T04:51:04;3.20;;;2.40;;
20814;SDS011;10568;48.176;16.316;2023-03-23T04:53:31;2.67;;;2.40;;
20814;SDS011;10568;48.176;16.316;2023-03-23T04:55:57;3.07;;;2.40;;
20814;SDS011;10568;48.176;16.316;2023-03-23T04:58:23;3.53;;;2.50;;
20814;SDS011;10568;48.176;16.316;2023-03-23T05:00:50;4.03;;;2.63;;
20814;SDS011;10568;48.176;16.316;2023-03-23T05:03:19;2.97;;;2.37;;
20814;SDS011;10568;48.176;16.316;2023-03-23T05:05:45;3.57;;;2.10;;
20814;SDS011;10568;48.176;16.316;2023-03-23T05:08:16;2.93;;;2.20;;
20814;SDS011;10568;48.176;16.316;2023-03-23T05:10:49;3.17;;;2.50;;
20814;SDS011;10568;48.176;16.316;2023-03-23T05:13:18;3.63;;;2.20;;
20814;SDS011;10568;48.176;16.316;2023-03-23T05:15:45;3.70;;;2.40;;
20814;SDS011;10568;48.176;16.316;2023-03-23T05:18:12;2.37;;;2.00;;
20814;SDS011;10568;48.176;16.316;2023-03-23T05:20:38;2.43;;;1.90;;
20814;SDS011;10568;48.176;16.316;2023-03-23T05:23:07;2.63;;;2.17;;
20814;SDS011;10568;48.176;16.316;2023-03-23T05:25:34;4.30;;;2.50;;
20814;SDS011;10568;48.176;16.316;2023-03-23T05:28:02;2.63;;;1.90;;
20814;SDS011;10568;48.176;16.316;2023-03-23T05:30:28;2.47;;;1.90;;
20814;SDS011;10568;48.176;16.316;2023-03-23T05:32:55;3.80;;;2.37;;
20814;SDS011;10568;48.176;16.316;2023-03-23T05:35:21;2.67;;;2.23;;
20814;SDS011;10568;48.176;16.316;2023-03-23T05:37:47;2.40;;;1.70;;
20814;SDS011;10568;48.176;16.316;2023-03-23T05:40:13;4.87;;;2.03;;
20814;SDS011;10568;48.176;16.316;2023-03-23T05:42:40;3.37;;;2.27;;
20814;SDS011;10568;48.176;16.316;2023-03-23T05:45:07;3.60;;;2.73;;
20814;SDS011;10568;48.176;16.316;2023-03-23T05:47:36;3.17;;;2.20;;
20814;SDS011;10568;48.176;16.316;2023-03-23T05:50:02;6.97;;;2.40;;
20814;SDS011;10568;48.176;16.316;2023-03-23T05:52:30;2.83;;;2.37;;
20814;SDS011;10568;48.176;16.316;2023-03-23T05:54:57;6.00;;;2.37;;
20814;SDS011;10568;48.176;16.316;2023-03-23T05:57:24;4.93;;;2.30;;
20814;SDS011;10568;48.176;16.316;2023-03-23T05:59:50;3.80;;;2.13;;
20814;SDS011;10568;48.176;16.316;2023-03-23T06:02:15;3.23;;;2.33;;
20814;SDS011;10568;48.176;16.316;2023-03-23T06:04:41;2.80;;;2.43;;
20814;SDS011;10568;48.176;16.316;2023-03-23T06:07:08;4.60;;;2.53;;
20814;SDS011;10568;48.176;16.316;2023-03-23T06:09:38;5.30;;;2.70;;
20814;SDS011;10568;48.176;16.316;2023-03-23T06:12:05;4.20;;;2.23;;
20814;SDS011;10568;48.176;16.316;2023-03-23T06:14:31;3.93;;;2.67;;
20814;SDS011;10568;48.176;16.316;2023-03-23T06:16:57;5.23;;;3.00;;
20814;SDS011;10568;48.176;16.316;2023-03-23T06:19:23;5.10;;;3.10;;
20814;SDS011;10568;48.176;16.316;2023-03-23T06:21:51;4.23;;;2.47;;
20814;SDS011;10568;48.176;16.316;2023-03-23T06:24:19;6.80;;;2.70;;
20814;SDS011;10568;48.176;16.316;2023-03-23T06:26:46;6.57;;;3.07;;
20814;SDS011;10568;48.176;16.316;2023-03-23T06:29:13;7.40;;;3.30;;
20814;SDS011;10568;48.176;16.316;2023-03-23T06:31:48;5.60;;;3.30;;
20814;SDS011;10568;48.176;16.316;2023-03-23T06:34:19;6.93;;;3.70;;
20814;SDS011;10568;48.176;16.316;2023-03-23T06:36:45;5.77;;;3.80;;
20814;SDS011;10568;48.176;16.316;2023-03-23T06:39:11;3.80;;;2.80;;
20814;SDS011;10568;48.176;16.316;2023-03-23T06:41:39;5.93;;;3.40;;
20814;SDS011;10568;48.176;16.316;2023-03-23T06:44:05;4.67;;;3.60;;
20814;SDS011;10568;48.176;16.316;2023-03-23T06:46:32;4.47;;;3.20;;
20814;SDS011;10568;48.176;16.316;2023-03-23T06:48:58;7.00;;;3.53;;
20814;SDS011;10568;48.176;16.316;2023-03-23T06:51:24;4.30;;;3.70;;
20814;SDS011;10568;48.176;16.316;2023-03-23T06:53:50;6.00;;;3.77;;
20814;SDS011;10568;48.176;16.316;2023-03-23T06:56:15;8.30;;;4.30;;
20814;SDS011;10568;48.176;16.316;2023-03-23T06:58:41;5.47;;;4.00;;
20814;SDS011;10568;48.176;16.316;2023-03-23T07:01:08;5.67;;;3.77;;
20814;SDS011;10568;48.176;16.316;2023-03-23T07:03:34;5.53;;;3.40;;
20814;SDS011;10568;48.176;16.316;2023-03-23T07:06:00;4.30;;;3.17;;
20814;SDS011;10568;48.176;16.316;2023-03-23T07:08:26;7.77;;;3.50;;
20814;SDS011;10568;48.176;16.316;2023-03-23T07:10:53;5.70;;;3.67;;
20814;SDS011;10568;48.176;16.316;2023-03-23T07:13:20;3.70;;;3.07;;
20814;SDS011;10568;48.176;16.316;2023-03-23T07:15:46;7.97;;;4.10;;
20814;SDS011;10568;48.176;16.316;2023-03-23T07:18:13;6.60;;;3.40;;
20814;SDS011;10568;48.176;16.316;2023-03-23T07:20:40;4.50;;;3.27;;
20814;SDS011;10568;48.176;16.316;2023-03-23T07:23:06;6.37;;;3.60;;
20814;SDS011;10568;48.176;16.316;2023-03-23T07:25:32;5.63;;;3.50;;
20814;SDS011;10568;48.176;16.316;2023-03-23T07:27:59;6.40;;;3.40;;
20814;SDS011;10568;48.176;16.316;2023-03-23T07:30:26;5.60;;;3.73;;
20814;SDS011;10568;48.176;16.316;2023-03-23T07:32:54;6.63;;;3.40;;
20814;SDS011;10568;48.176;16.316;2023-03-23T07:35:20;5.43;;;4.07;;
20814;SDS011;10568;48.176;16.316;2023-03-23T07:37:46;5.37;;;3.93;;
20814;SDS011;10568;48.176;16.316;2023-03-23T07:40:14;7.77;;;4.30;;
20814;SDS011;10568;48.176;16.316;2023-03-23T07:42:44;7.97;;;5.13;;
20814;SDS011;10568;48.176;16.316;2023-03-23T07:45:14;5.93;;;5.07;;
20814;SDS011;10568;48.176;16.316;2023-03-23T07:47:40;8.73;;;5.20;;
20814;SDS011;10568;48.176;16.316;2023-03-23T07:50:07;6.73;;;4.67;;
20814;SDS011;10568;48.176;16.316;2023-03-23T07:52:34;7.03;;;5.10;;
20814;SDS011;10568;48.176;16.316;2023-03-23T07:55:01;5.80;;;4.63;;
20814;SDS011;10568;48.176;16.316;2023-03-23T07:57:28;9.37;;;5.20;;
20814;SDS011;10568;48.176;16.316;2023-03-23T07:59:55;7.17;;;5.27;;
20814;SDS011;10568;48.176;16.316;2023-03-23T08:02:22;9.00;;;5.13;;
20814;SDS011;10568;48.176;16.316;2023-03-23T08:04:48;7.50;;;5.47;;
20814;SDS011;10568;48.176;16.316;2023-03-23T08:07:16;9.10;;;5.20;;
20814;SDS011;10568;48.176;16.316;2023-03-23T08:09:44;7.40;;;5.47;;
20814;SDS011;10568;48.176;16.316;2023-03-23T08:12:10;6.93;;;5.53;;
20814;SDS011;10568;48.176;16.316;2023-03-23T08:14:37;9.07;;;5.63;;
20814;SDS011;10568;48.176;16.316;2023-03-23T08:17:03;8.97;;;5.53;;
20814;SDS011;10568;48.176;16.316;2023-03-23T08:19:29;6.70;;;4.77;;
20814;SDS011;10568;48.176;16.316;2023-03-23T08:21:55;9.67;;;6.10;;
20814;SDS011;10568;48.176;16.316;2023-03-23T08:24:22;9.10;;;5.47;;
20814;SDS011;10568;48.176;16.316;2023-03-23T08:26:48;7.37;;;5.63;;
20814;SDS011;10568;48.176;16.316;2023-03-23T08:29:14;9.73;;;5.70;;
20814;SDS011;10568;48.176;16.316;2023-03-23T08:31:41;8.90;;;5.70;;
20814;SDS011;10568;48.176;16.316;2023-03-23T08:34:09;6.77;;;5.33;;
20814;SDS011;10568;48.176;16.316;2023-03-23T08:36:35;6.67;;;5.07;;
20814;SDS011;10568;48.176;16.316;2023-03-23T08:39:02;6.83;;;4.73;;
20814;SDS011;10568;48.176;16.316;2023-03-23T08:41:30;7.73;;;5.80;;
20814;SDS011;10568;48.176;16.316;2023-03-23T08:43:56;7.63;;;5.80;;
20814;SDS011;10568;48.176;16.316;2023-03-23T08:46:22;8.80;;;5.70;;
20814;SDS011;10568;48.176;16.316;2023-03-23T08:48:48;8.60;;;6.30;;
20814;SDS011;10568;48.176;16.316;2023-03-23T08:51:14;9.33;;;6.70;;
20814;SDS011;10568;48.176;16.316;2023-03-23T08:53:40;9.67;;;6.77;;
20814;SDS011;10568;48.176;16.316;2023-03-23T08:56:09;8.90;;;7.23;;
20814;SDS011;10568;48.176;16.316;2023-03-23T08:58:37;10.03;;;6.70;;
20814;SDS011;10568;48.176;16.316;2023-03-23T09:01:05;9.40;;;6.80;;
20814;SDS011;10568;48.176;16.316;2023-03-23T09:03:33;9.07;;;6.63;;
20814;SDS011;10568;48.176;16.316;2023-03-23T09:06:05;9.90;;;7.70;;
20814;SDS011;10568;48.176;16.316;2023-03-23T09:08:32;11.63;;;7.70;;
20814;SDS011;10568;48.176;16.316;2023-03-23T09:11:03;8.83;;;7.30;;
20814;SDS011;10568;48.176;16.316;2023-03-23T09:13:34;9.87;;;7.23;;
20814;SDS011;10568;48.176;16.316;2023-03-23T09:16:03;11.47;;;6.87;;
20814;SDS011;10568;48.176;16.316;2023-03-23T09:18:30;8.23;;;6.70;;
20814;SDS011;10568;48.176;16.316;2023-03-23T09:21:00;10.00;;;6.73;;
20814;SDS011;10568;48.176;16.316;2023-03-23T09:23:28;12.17;;;7.07;;
20814;SDS011;10568;48.176;16.316;2023-03-23T09:25:55;11.37;;;7.23;;
20814;SDS011;10568;48.176;16.316;2023-03-23T09:28:21;11.60;;;7.20;;
20814;SDS011;10568;48.176;16.316;2023-03-23T09:30:46;10.80;;;7.60;;
20814;SDS011;10568;48.176;16.316;2023-03-23T09:33:14;10.33;;;7.20;;
20814;SDS011;10568;48.176;16.316;2023-03-23T09:35:40;12.57;;;7.67;;
20814;SDS011;10568;48.176;16.316;2023-03-23T09:38:08;18.70;;;7.87;;
20814;SDS011;10568;48.176;16.316;2023-03-23T09:40:48;10.20;;;7.00;;
20814;SDS011;10568;48.176;16.316;2023-03-23T09:43:36;9.20;;;6.87;;
20814;SDS011;10568;48.176;16.316;2023-03-23T09:48:58;10.70;;;7.53;;
20814;SDS011;10568;48.176;16.316;2023-03-23T09:54:13;10.10;;;6.23;;
20814;SDS011;10568;48.176;16.316;2023-03-23T09:56:59;14.83;;;8.47;;
20814;SDS011;10568;48.176;16.316;2023-03-23T10:02:19;8.50;;;6.30;;
20814;SDS011;10568;48.176;16.316;2023-03-23T10:04:52;10.05;;;6.68;;
20814;SDS011;10568;48.176;16.316;2023-03-23T10:07:26;8.20;;;6.28;;
20814;SDS011;10568;48.176;16.316;2023-03-23T10:09:54;8.50;;;7.10;;
20814;SDS011;10568;48.176;16.316;2023-03-23T10:15:30;6.15;;;4.90;;
20814;SDS011;10568;48.176;16.316;2023-03-23T10:18:07;7.32;;;5.25;;
20814;SDS011;10568;48.176;16.316;2023-03-23T10:20:55;5.93;;;5.03;;
20814;SDS011;10568;48.176;16.316;2023-03-23T10:23:35;7.32;;;4.88;;
20814;SDS011;10568;48.176;16.316;2023-03-23T10:31:32;6.82;;;4.72;;
20814;SDS011;10568;48.176;16.316;2023-03-23T10:37:18;6.78;;;4.85;;
20814;SDS011;10568;48.176;16.316;2023-03-23T10:39:53;5.10;;;3.85;;
20814;SDS011;10568;48.176;16.316;2023-03-23T10:42:26;5.43;;;3.88;;
20814;SDS011;10568;48.176;16.316;2023-03-23T10:44:58;5.85;;;4.32;;
20814;SDS011;10568;48.176;16.316;2023-03-23T10:47:35;5.25;;;4.35;;
20814;SDS011;10568;48.176;16.316;2023-03-23T10:50:04;5.22;;;3.88;;
20814;SDS011;10568;48.176;16.316;2023-03-23T10:52:36;5.50;;;3.90;;
20814;SDS011;10568;48.176;16.316;2023-03-23T10:55:09;4.80;;;3.50;;
20814;SDS011;10568;48.176;16.316;2023-03-23T10:57:39;5.70;;;3.70;;
20814;SDS011;10568;48.176;16.316;2023-03-23T11:02:44;5.60;;;3.72;;
20814;SDS011;10568;48.176;16.316;2023-03-23T11:05:23;4.72;;;3.17;;
20814;SDS011;10568;48.176;16.316;2023-03-23T11:07:54;3.90;;;3.08;;
20814;SDS011;10568;48.176;16.316;2023-03-23T11:10:23;6.47;;;3.50;;
20814;SDS011;10568;48.176;16.316;2023-03-23T11:13:13;6.15;;;3.40;;
20814;SDS011;10568;48.176;16.316;2023-03-23T11:15:41;5.60;;;3.28;;
20814;SDS011;10568;48.176;16.316;2023-03-23T11:18:12;3.72;;;2.97;;
20814;SDS011;10568;48.176;16.316;2023-03-23T11:20:49;4.90;;;2.92;;
20814;SDS011;10568;48.176;16.316;2023-03-23T11:23:21;3.45;;;2.78;;
20814;SDS011;10568;48.176;16.316;2023-03-23T11:26:14;4.68;;;3.17;;
20814;SDS011;10568;48.176;16.316;2023-03-23T11:28:52;4.80;;;3.08;;
20814;SDS011;10568;48.176;16.316;2023-03-23T11:31:28;6.40;;;3.42;;
20814;SDS011;10568;48.176;16.316;2023-03-23T11:34:03;4.47;;;3.28;;
20814;SDS011;10568;48.176;16.316;2023-03-23T11:36:40;4.30;;;3.08;;
20814;SDS011;10568;48.176;16.316;2023-03-23T11:44:46;4.55;;;3.40;;
20814;SDS011;10568;48.176;16.316;2023-03-23T11:58:15;4.60;;;3.28;;
20814;SDS011;10568;48.176;16.316;2023-03-23T12:00:45;6.50;;;3.03;;
20814;SDS011;10568;48.176;16.316;2023-03-23T12:03:13;4.38;;;3.33;;
20814;SDS011;10568;48.176;16.316;2023-03-23T12:05:59;4.20;;;3.10;;
20814;SDS011;10568;48.176;16.316;2023-03-23T12:13:56;7.88;;;4.07;;
20814;SDS011;10568;48.176;16.316;2023-03-23T12:16:44;5.47;;;3.88;;
20814;SDS011;10568;48.176;16.316;2023-03-23T12:19:22;6.20;;;4.13;;
20814;SDS011;10568;48.176;16.316;2023-03-23T12:22:19;6.80;;;3.45;;
20814;SDS011;10568;48.176;16.316;2023-03-23T12:27:50;5.63;;;3.20;;
20814;SDS011;10568;48.176;16.316;2023-03-23T12:43:51;6.55;;;3.80;;
20814;SDS011;10568;48.176;16.316;2023-03-23T12:54:28;4.50;;;3.42;;
20814;SDS011;10568;48.176;16.316;2023-03-23T13:00:05;6.25;;;3.50;;
20814;SDS011;10568;48.176;16.316;2023-03-23T13:07:56;4.70;;;3.20;;
20814;SDS011;10568;48.176;16.316;2023-03-23T13:10:30;5.32;;;3.05;;
20814;SDS011;10568;48.176;16.316;2023-03-23T13:13:01;5.80;;;2.92;;
20814;SDS011;10568;48.176;16.316;2023-03-23T13:15:51;3.90;;;3.08;;
20814;SDS011;10568;48.176;16.316;2023-03-23T13:23:41;6.60;;;3.67;;
20814;SDS011;10568;48.176;16.316;2023-03-23T13:26:20;3.85;;;2.65;;
20814;SDS011;10568;48.176;16.316;2023-03-23T13:31:20;2.60;;;2.40;;
20814;SDS011;10568;48.176;16.316;2023-03-23T13:33:58;4.05;;;2.78;;
20814;SDS011;10568;48.176;16.316;2023-03-23T13:36:37;3.58;;;2.95;;
20814;SDS011;10568;48.176;16.316;2023-03-23T13:39:06;3.55;;;2.53;;
20814;SDS011;10568;48.176;16.316;2023-03-23T13:41:48;5.97;;;2.47;;
20814;SDS011;10568;48.176;16.316;2023-03-23T13:50:10;3.95;;;2.42;;
20814;SDS011;10568;48.176;16.316;2023-03-23T14:01:00;2.70;;;2.13;;
20814;SDS011;10568;48.176;16.316;2023-03-23T14:03:38;3.55;;;2.40;;
20814;SDS011;10568;48.176;16.316;2023-03-23T14:06:05;2.97;;;2.40;;
20814;SDS011;10568;48.176;16.316;2023-03-23T14:08:37;2.65;;;2.20;;
20814;SDS011;10568;48.176;16.316;2023-03-23T14:11:12;6.07;;;2.72;;
20814;SDS011;10568;48.176;16.316;2023-03-23T14:13:56;4.70;;;2.50;;
20814;SDS011;10568;48.176;16.316;2023-03-23T14:19:12;4.13;;;2.60;;
20814;SDS011;10568;48.176;16.316;2023-03-23T14:21:44;4.07;;;2.40;;
20814;SDS011;10568;48.176;16.316;2023-03-23T14:29:46;2.33;;;1.95;;
20814;SDS011;10568;48.176;16.316;2023-03-23T14:32:22;2.22;;;1.85;;
20814;SDS011;10568;48.176;16.316;2023-03-23T14:34:51;2.78;;;2.05;;
20814;SDS011;10568;48.176;16.316;2023-03-23T14:37:18;2.33;;;1.83;;
20814;SDS011;10568;48.176;16.316;2023-03-23T14:39:46;2.05;;;1.85;;
20814;SDS011;10568;48.176;16.316;2023-03-23T14:42:16;2.33;;;2.10;;
20814;SDS011;10568;48.176;16.316;2023-03-23T14:44:46;3.97;;;1.60;;
20814;SDS011;10568;48.176;16.316;2023-03-23T14:47:35;2.38;;;1.70;;
20814;SDS011;10568;48.176;16.316;2023-03-23T14:50:04;3.00;;;1.60;;
20814;SDS011;10568;48.176;16.316;2023-03-23T14:52:35;2.42;;;1.58;;
20814;SDS011;10568;48.176;16.316;2023-03-23T14:55:14;2.47;;;1.52;;
20814;SDS011;10568;48.176;16.316;2023-03-23T14:57:47;3.40;;;1.83;;
20814;SDS011;10568;48.176;16.316;2023-03-23T15:00:15;3.63;;;1.50;;
20814;SDS011;10568;48.176;16.316;2023-03-23T15:02:45;1.90;;;1.67;;
20814;SDS011;10568;48.176;16.316;2023-03-23T15:05:16;2.28;;;1.70;;
20814;SDS011;10568;48.176;16.316;2023-03-23T15:07:48;2.25;;;1.73;;
20814;SDS011;10568;48.176;16.316;2023-03-23T15:10:18;1.88;;;1.67;;
20814;SDS011;10568;48.176;16.316;2023-03-23T15:12:47;2.45;;;1.67;;
20814;SDS011;10568;48.176;16.316;2023-03-23T15:15:30;2.47;;;1.85;;
20814;SDS011;10568;48.176;16.316;2023-03-23T15:17:57;2.30;;;1.50;;
20814;SDS011;10568;48.176;16.316;2023-03-23T15:22:54;2.42;;;1.80;;
20814;SDS011;10568;48.176;16.316;2023-03-23T15:25:22;2.33;;;1.77;;
20814;SDS011;10568;48.176;16.316;2023-03-23T15:27:58;2.85;;;1.75;;
20814;SDS011;10568;48.176;16.316;2023-03-23T15:30:50;1.98;;;1.67;;
20814;SDS011;10568;48.176;16.316;2023-03-23T15:33:17;3.00;;;1.90;;
20814;SDS011;10568;48.176;16.316;2023-03-23T15:35:51;2.17;;;1.70;;
20814;SDS011;10568;48.176;16.316;2023-03-23T15:38:22;1.90;;;1.70;;
20814;SDS011;10568;48.176;16.316;2023-03-23T15:40:56;2.45;;;1.70;;
20814;SDS011;10568;48.176;16.316;2023-03-23T15:43:27;3.38;;;2.20;;
20814;SDS011;10568;48.176;16.316;2023-03-23T15:48:48;3.80;;;2.00;;
20814;SDS011;10568;48.176;16.316;2023-03-23T15:51:16;2.55;;;2.10;;
20814;SDS011;10568;48.176;16.316;2023-03-23T15:53:57;3.83;;;2.30;;
20814;SDS011;10568;48.176;16.316;2023-03-23T15:56:23;3.85;;;2.60;;
20814;SDS011;10568;48.176;16.316;2023-03-23T15:58:50;4.22;;;2.78;;
20814;SDS011;10568;48.176;16.316;2023-03-23T16:01:17;3.22;;;2.50;;
20814;SDS011;10568;48.176;16.316;2023-03-23T16:06:13;3.72;;;2.58;;
20814;SDS011;10568;48.176;16.316;2023-03-23T16:08:40;3.20;;;2.55;;
20814;SDS011;10568;48.176;16.316;2023-03-23T16:11:08;3.45;;;2.50;;
20814;SDS011;10568;48.176;16.316;2023-03-23T16:13:36;3.75;;;2.55;;
20814;SDS011;10568;48.176;16.316;2023-03-23T16:16:02;3.20;;;2.40;;
20814;SDS011;10568;48.176;16.316;2023-03-23T16:18:29;3.88;;;2.50;;
20814;SDS011;10568;48.176;16.316;2023-03-23T16:20:55;4.53;;;2.50;;
20814;SDS011;10568;48.176;16.316;2023-03-23T16:23:22;3.90;;;2.53;;
20814;SDS011;10568;48.176;16.316;2023-03-23T16:25:48;3.83;;;2.85;;
20814;SDS011;10568;48.176;16.316;2023-03-23T16:28:14;3.25;;;2.40;;
20814;SDS011;10568;48.176;16.316;2023-03-23T16:30:42;6.30;;;3.08;;
20814;SDS011;10568;48.176;16.316;2023-03-23T16:33:08;3.85;;;2.65;;
20814;SDS011;10568;48.176;16.316;2023-03-23T16:35:35;3.40;;;2.75;;
20814;SDS011;10568;48.176;16.316;2023-03-23T16:38:01;6.40;;;2.90;;
20814;SDS011;10568;48.176;16.316;2023-03-23T16:40:27;3.92;;;2.78;;
20814;SDS011;10568;48.176;16.316;2023-03-23T16:42:53;3.83;;;2.97;;
20814;SDS011;10568;48.176;16.316;2023-03-23T16:45:19;3.38;;;2.75;;
20814;SDS011;10568;48.176;16.316;2023-03-23T16:47:46;4.67;;;3.03;;
20814;SDS011;10568;48.176;16.316;2023-03-23T16:50:13;6.13;;;3.10;;
20814;SDS011;10568;48.176;16.316;2023-03-23T16:52:41;6.50;;;3.63;;
20814;SDS011;10568;48.176;16.316;2023-03-23T16:55:08;5.17;;;3.50;;
20814;SDS011;10568;48.176;16.316;2023-03-23T16:57:36;4.30;;;3.20;;
20814;SDS011;10568;48.176;16.316;2023-03-23T17:00:05;7.47;;;3.43;;
20814;SDS011;10568;48.176;16.316;2023-03-23T17:02:33;4.07;;;3.20;;
20814;SDS011;10568;48.176;16.316;2023-03-23T17:05:00;5.07;;;3.63;;
20814;SDS011;10568;48.176;16.316;2023-03-23T17:07:26;4.20;;;3.00;;
20814;SDS011;10568;48.176;16.316;2023-03-23T17:09:53;5.30;;;3.30;;
20814;SDS011;10568;48.176;16.316;2023-03-23T17:12:19;7.80;;;3.97;;
20814;SDS011;10568;48.176;16.316;2023-03-23T17:14:45;6.13;;;3.70;;
20814;SDS011;10568;48.176;16.316;2023-03-23T17:17:12;8.17;;;4.47;;
20814;SDS011;10568;48.176;16.316;2023-03-23T17:19:38;8.37;;;4.23;;